Time;durP1;ratioP1;P1;durP2;ratioP2;P2;SDS_P1;SDS_P2;PMS_P1;PMS_P2;Temp;Humidity;BMP_temperature;BMP_pressure;BME280_temperature;BME280_humidity;BME280_pressure;Samples;Min_cycle;Max_cycle;Signal;HPM_P1;HPM_P2
2023/12/14 00:00:31;;;;;;;38.58;35.70;;;;;;;;;;4976438;28;20467;-44
2023/12/14 00:02:58;;;;;;;36.55;33.67;;;;;;;;;;4988137;28;20199;-43
2023/12/14 00:05:24;;;;;;;34.03;31.55;;;;;;;;;;4982920;28;20203;-43
2023/12/14 00:07:50;;;;;;;36.10;33.30;;;;;;;;;;4980839;28;20173;-44
2023/12/14 00:10:17;;;;;;;35.40;32.63;;;;;;;;;;4982987;28;20439;-43
2023/12/14 00:12:44;;;;;;;37.13;34.28;;;;;;;;;;4981682;28;20586;-43
2023/12/14 00:15:10;;;;;;;27.95;26.25;;;;;;;;;;4981523;28;20227;-43
2023/12/14 00:17:36;;;;;;;24.67;23.33;;;;;;;;;;4981004;28;20215;-44
2023/12/14 00:20:03;;;;;;;21.48;20.25;;;;;;;;;;4986000;28;20203;-43
2023/12/14 00:22:29;;;;;;;30.92;28.92;;;;;;;;;;4981745;28;20668;-43
2023/12/14 00:24:55;;;;;;;32.60;30.70;;;;;;;;;;4978559;28;20217;-43
2023/12/14 00:27:20;;;;;;;29.70;28.00;;;;;;;;;;4981029;28;20776;-43
2023/12/14 00:29:46;;;;;;;21.97;20.63;;;;;;;;;;4980537;28;20467;-43
2023/12/14 00:32:12;;;;;;;20.97;19.73;;;;;;;;;;4983713;28;20420;-44
2023/12/14 00:34:38;;;;;;;28.33;26.60;;;;;;;;;;4983506;28;20421;-43
2023/12/14 00:37:04;;;;;;;35.90;33.40;;;;;;;;;;4985373;28;20467;-43
2023/12/14 00:39:30;;;;;;;36.90;34.40;;;;;;;;;;4983985;28;20431;-43
2023/12/14 00:41:57;;;;;;;21.90;20.70;;;;;;;;;;4976727;28;20413;-43
2023/12/14 00:44:23;;;;;;;20.52;19.42;;;;;;;;;;4984119;28;20498;-43
2023/12/14 00:46:49;;;;;;;28.70;26.98;;;;;;;;;;4981853;28;20216;-43
2023/12/14 00:49:18;;;;;;;33.33;31.33;;;;;;;;;;4983635;28;20176;-43
2023/12/14 00:51:44;;;;;;;30.75;28.85;;;;;;;;;;4981377;28;20468;-43
2023/12/14 00:54:09;;;;;;;34.10;31.83;;;;;;;;;;4983018;28;20185;-43
2023/12/14 00:56:35;;;;;;;34.13;31.80;;;;;;;;;;4979096;28;20414;-43
2023/12/14 00:59:01;;;;;;;30.63;28.63;;;;;;;;;;4981954;28;20412;-43
2023/12/14 01:01:27;;;;;;;26.20;24.53;;;;;;;;;;4982676;28;20980;-43
2023/12/14 01:03:53;;;;;;;33.80;31.63;;;;;;;;;;4979856;28;20409;-43
2023/12/14 01:06:19;;;;;;;26.40;24.80;;;;;;;;;;4982628;28;20404;-43
2023/12/14 01:08:45;;;;;;;27.13;25.60;;;;;;;;;;4980349;28;20401;-43
2023/12/14 01:11:11;;;;;;;27.87;26.17;;;;;;;;;;4981206;28;20950;-43
2023/12/14 01:13:37;;;;;;;16.60;15.60;;;;;;;;;;4980710;28;20412;-43
2023/12/14 01:16:03;;;;;;;21.13;19.93;;;;;;;;;;4986008;28;20564;-43
2023/12/14 01:18:29;;;;;;;32.08;30.05;;;;;;;;;;4981059;28;20838;-43
2023/12/14 01:20:55;;;;;;;28.30;26.60;;;;;;;;;;4977974;28;20197;-43
2023/12/14 01:23:21;;;;;;;30.03;28.27;;;;;;;;;;4980540;28;20502;-44
2023/12/14 01:25:47;;;;;;;26.23;24.73;;;;;;;;;;4980591;28;20920;-43
2023/12/14 01:28:13;;;;;;;28.93;27.23;;;;;;;;;;4983144;28;20412;-43
2023/12/14 01:30:39;;;;;;;27.35;25.77;;;;;;;;;;4984463;28;20488;-43
2023/12/14 01:33:05;;;;;;;32.43;30.53;;;;;;;;;;4988096;28;20189;-43
2023/12/14 01:35:31;;;;;;;30.40;28.60;;;;;;;;;;4983726;28;20404;-43
2023/12/14 01:37:57;;;;;;;28.43;26.63;;;;;;;;;;4979838;28;20827;-42
2023/12/14 01:40:23;;;;;;;30.17;28.47;;;;;;;;;;4987108;28;20794;-43
2023/12/14 01:42:49;;;;;;;29.43;27.73;;;;;;;;;;4987657;28;20750;-43
2023/12/14 01:45:16;;;;;;;37.50;34.63;;;;;;;;;;4978969;28;20415;-43
2023/12/14 01:47:42;;;;;;;32.75;30.40;;;;;;;;;;4965603;28;20468;-44
2023/12/14 01:50:09;;;;;;;34.00;31.55;;;;;;;;;;4956748;28;20202;-43
2023/12/14 01:52:35;;;;;;;34.97;32.58;;;;;;;;;;4957121;28;20212;-43
2023/12/14 01:55:02;;;;;;;33.60;31.30;;;;;;;;;;4956972;28;20205;-43
2023/12/14 01:57:28;;;;;;;33.95;31.67;;;;;;;;;;4974555;28;20555;-43
2023/12/14 01:59:54;;;;;;;31.10;29.02;;;;;;;;;;4961233;28;20202;-43
2023/12/14 02:02:20;;;;;;;33.78;31.38;;;;;;;;;;4956359;28;20609;-43
2023/12/14 02:04:46;;;;;;;34.90;32.50;;;;;;;;;;4956203;28;20264;-43
2023/12/14 02:07:12;;;;;;;35.93;33.43;;;;;;;;;;4958268;28;20266;-43
2023/12/14 02:09:38;;;;;;;33.67;31.30;;;;;;;;;;4975599;28;20430;-43
2023/12/14 02:12:05;;;;;;;32.73;30.60;;;;;;;;;;4958043;28;20507;-43
2023/12/14 02:14:31;;;;;;;25.42;23.90;;;;;;;;;;4969857;28;20444;-43
2023/12/14 02:16:57;;;;;;;19.17;18.17;;;;;;;;;;4965633;28;20688;-43
2023/12/14 02:19:22;;;;;;;34.37;32.37;;;;;;;;;;4961316;28;20893;-42
2023/12/14 02:21:48;;;;;;;29.50;27.77;;;;;;;;;;4973653;28;20396;-43
2023/12/14 02:24:14;;;;;;;28.67;27.00;;;;;;;;;;4956181;28;20394;-44
2023/12/14 02:26:40;;;;;;;30.67;28.93;;;;;;;;;;4973138;28;20502;-42
2023/12/14 02:29:06;;;;;;;31.80;29.90;;;;;;;;;;4961771;28;20476;-43
2023/12/14 02:31:32;;;;;;;31.73;29.83;;;;;;;;;;4964932;28;20423;-43
2023/12/14 02:33:58;;;;;;;28.73;27.20;;;;;;;;;;4969955;28;20421;-43
2023/12/14 02:36:24;;;;;;;18.53;17.40;;;;;;;;;;4957073;28;20413;-43
2023/12/14 02:38:50;;;;;;;19.10;18.03;;;;;;;;;;4974907;28;20913;-44
2023/12/14 02:41:16;;;;;;;19.60;18.42;;;;;;;;;;4958338;28;20518;-43
2023/12/14 02:43:42;;;;;;;26.97;25.57;;;;;;;;;;4968185;28;20256;-44
2023/12/14 02:46:08;;;;;;;27.83;26.33;;;;;;;;;;4966512;28;20746;-43
2023/12/14 02:48:34;;;;;;;31.30;29.45;;;;;;;;;;4959749;28;20424;-44
2023/12/14 02:51:00;;;;;;;32.87;30.97;;;;;;;;;;4974266;28;20244;-43
2023/12/14 02:53:26;;;;;;;31.43;29.73;;;;;;;;;;4955639;28;20404;-43
2023/12/14 02:55:52;;;;;;;27.55;25.95;;;;;;;;;;4971411;28;20919;-43
2023/12/14 02:58:19;;;;;;;31.20;29.30;;;;;;;;;;4974019;28;20220;-43
2023/12/14 03:00:45;;;;;;;13.95;13.02;;;;;;;;;;4966512;28;20436;-43
2023/12/14 03:03:11;;;;;;;12.73;11.90;;;;;;;;;;4958473;28;20556;-43
2023/12/14 03:05:37;;;;;;;22.60;21.30;;;;;;;;;;4973662;28;20461;-43
2023/12/14 03:08:03;;;;;;;8.50;7.70;;;;;;;;;;4954384;28;20405;-43
2023/12/14 03:10:29;;;;;;;34.23;28.27;;;;;;;;;;4969411;28;20288;-43
2023/12/14 03:12:55;;;;;;;34.97;32.70;;;;;;;;;;4961948;28;20473;-43
2023/12/14 03:15:22;;;;;;;25.63;24.27;;;;;;;;;;4961703;28;20417;-43
2023/12/14 03:17:48;;;;;;;20.10;18.85;;;;;;;;;;4969640;28;20286;-43
2023/12/14 03:20:14;;;;;;;23.90;22.53;;;;;;;;;;4953955;28;20271;-43
2023/12/14 03:22:40;;;;;;;28.38;26.77;;;;;;;;;;4973404;28;20405;-43
2023/12/14 03:25:06;;;;;;;15.82;14.85;;;;;;;;;;4958178;28;20239;-43
2023/12/14 03:27:32;;;;;;;16.98;15.90;;;;;;;;;;4965106;28;20250;-43
2023/12/14 03:29:58;;;;;;;13.73;12.83;;;;;;;;;;4965732;28;20670;-44
2023/12/14 03:32:24;;;;;;;31.90;29.93;;;;;;;;;;4957030;28;20749;-43
2023/12/14 03:34:50;;;;;;;36.40;33.75;;;;;;;;;;4973350;28;20416;-43
2023/12/14 03:37:16;;;;;;;36.67;34.00;;;;;;;;;;4954634;28;20570;-43
2023/12/14 03:39:42;;;;;;;35.60;33.13;;;;;;;;;;4968121;28;20437;-43
2023/12/14 03:42:08;;;;;;;36.00;33.40;;;;;;;;;;4962500;28;20408;-43
2023/12/14 03:44:34;;;;;;;34.53;31.73;;;;;;;;;;4960268;28;20421;-43
2023/12/14 03:47:00;;;;;;;26.97;24.63;;;;;;;;;;4970171;28;20445;-43
2023/12/14 03:49:26;;;;;;;22.60;21.05;;;;;;;;;;4953493;28;20917;-44
2023/12/14 03:51:52;;;;;;;7.83;7.17;;;;;;;;;;4971674;28;20269;-43
2023/12/14 03:54:18;;;;;;;52.10;28.42;;;;;;;;;;4958340;28;20408;-43
2023/12/14 03:56:44;;;;;;;25.30;23.60;;;;;;;;;;4969573;28;20181;-43
2023/12/14 03:59:10;;;;;;;12.90;11.90;;;;;;;;;;4966382;28;20193;-43
2023/12/14 04:01:39;;;;;;;12.07;11.00;;;;;;;;;;4915413;28;1171881;-43
2023/12/14 04:04:05;;;;;;;23.77;21.63;;;;;;;;;;4973754;28;20169;-44
2023/12/14 04:06:31;;;;;;;22.27;20.73;;;;;;;;;;4955507;28;20194;-44
2023/12/14 04:08:57;;;;;;;204.03;53.40;;;;;;;;;;4967840;28;20415;-42
2023/12/14 04:11:23;;;;;;;203.57;54.40;;;;;;;;;;4963324;28;20504;-43
2023/12/14 04:13:53;;;;;;;198.40;54.22;;;;;;;;;;4960008;28;20791;-43
2023/12/14 04:16:22;;;;;;;197.57;55.28;;;;;;;;;;4970666;28;20230;-43
2023/12/14 04:18:49;;;;;;;202.85;54.30;;;;;;;;;;4953776;28;20208;-43
2023/12/14 04:21:15;;;;;;;201.20;54.50;;;;;;;;;;4972342;28;20199;-42
2023/12/14 04:23:41;;;;;;;197.30;53.53;;;;;;;;;;4958727;28;20185;-43
2023/12/14 04:26:09;;;;;;;196.70;53.27;;;;;;;;;;4964371;28;20415;-44
2023/12/14 04:28:35;;;;;;;39.75;18.48;;;;;;;;;;4965892;28;20425;-44
2023/12/14 04:31:01;;;;;;;10.18;9.27;;;;;;;;;;4956556;28;20752;-44
2023/12/14 04:33:27;;;;;;;7.25;6.63;;;;;;;;;;4973234;28;20180;-43
2023/12/14 04:35:53;;;;;;;17.40;16.40;;;;;;;;;;4954876;28;20178;-43
2023/12/14 04:38:19;;;;;;;34.07;31.83;;;;;;;;;;4967717;28;20511;-43
2023/12/14 04:40:45;;;;;;;37.60;34.60;;;;;;;;;;4962707;28;20426;-43
2023/12/14 04:43:11;;;;;;;39.73;36.43;;;;;;;;;;4959825;28;20414;-43
2023/12/14 04:45:37;;;;;;;35.17;32.92;;;;;;;;;;4970666;28;20500;-42
2023/12/14 04:48:03;;;;;;;40.53;37.07;;;;;;;;;;4954068;28;20223;-43
2023/12/14 04:50:29;;;;;;;35.80;33.10;;;;;;;;;;4970998;28;20439;-43
2023/12/14 04:52:55;;;;;;;40.90;37.20;;;;;;;;;;4959203;28;20507;-43
2023/12/14 04:55:21;;;;;;;39.63;35.63;;;;;;;;;;4963292;28;20416;-43
2023/12/14 04:57:48;;;;;;;42.60;38.28;;;;;;;;;;4972198;28;20970;-43
2023/12/14 05:00:15;;;;;;;43.90;39.63;;;;;;;;;;4970855;28;20200;-43
2023/12/14 05:02:40;;;;;;;41.35;37.05;;;;;;;;;;4953678;28;20188;-43
2023/12/14 05:05:07;;;;;;;40.63;36.73;;;;;;;;;;4971797;28;20666;-44
2023/12/14 05:07:32;;;;;;;46.42;40.97;;;;;;;;;;4963288;28;20416;-43
2023/12/14 05:09:58;;;;;;;34.47;29.50;;;;;;;;;;4966434;28;20279;-43
2023/12/14 05:12:26;;;;;;;46.97;37.80;;;;;;;;;;4971983;28;20414;-43
2023/12/14 05:14:53;;;;;;;48.72;38.85;;;;;;;;;;4958956;28;20410;-43
2023/12/14 05:17:19;;;;;;;47.33;38.80;;;;;;;;;;4976674;28;20290;-43
2023/12/14 05:19:46;;;;;;;44.90;40.00;;;;;;;;;;4959107;28;20199;-43
2023/12/14 05:22:12;;;;;;;44.67;38.65;;;;;;;;;;4970397;28;20250;-43
2023/12/14 05:24:38;;;;;;;44.38;39.53;;;;;;;;;;4967050;28;20649;-43
2023/12/14 05:27:04;;;;;;;33.07;29.70;;;;;;;;;;4962214;28;20188;-44
2023/12/14 05:29:31;;;;;;;41.95;37.40;;;;;;;;;;4974219;28;20739;-44
2023/12/14 05:31:57;;;;;;;41.33;37.28;;;;;;;;;;4982750;28;20184;-43
2023/12/14 05:34:23;;;;;;;40.67;36.47;;;;;;;;;;4986181;28;20175;-43
2023/12/14 05:36:49;;;;;;;41.03;36.70;;;;;;;;;;4985017;28;20190;-44
2023/12/14 05:39:15;;;;;;;44.97;39.50;;;;;;;;;;4984060;28;20408;-43
2023/12/14 05:41:41;;;;;;;37.13;32.20;;;;;;;;;;4988260;28;20416;-43
2023/12/14 05:44:07;;;;;;;23.75;21.58;;;;;;;;;;4984045;28;20419;-43
2023/12/14 05:46:33;;;;;;;17.70;15.85;;;;;;;;;;4980657;28;20181;-43
2023/12/14 05:48:59;;;;;;;36.30;31.03;;;;;;;;;;4984889;28;20566;-43
2023/12/14 05:51:32;;;;;;;46.50;40.90;;;;;;;;;;4984968;28;20431;-43
2023/12/14 05:53:58;;;;;;;47.97;42.85;;;;;;;;;;4981845;28;20421;-43
2023/12/14 05:56:27;;;;;;;45.60;37.50;;;;;;;;;;4985225;28;20174;-43
2023/12/14 05:58:53;;;;;;;44.03;35.03;;;;;;;;;;4986100;28;20827;-43
2023/12/14 06:01:19;;;;;;;37.77;30.57;;;;;;;;;;4988707;28;20299;-43
2023/12/14 06:03:45;;;;;;;38.15;30.23;;;;;;;;;;4985959;28;20904;-43
2023/12/14 06:06:13;;;;;;;36.47;28.38;;;;;;;;;;4986250;28;20194;-43
2023/12/14 06:08:39;;;;;;;26.05;21.55;;;;;;;;;;4980890;28;20271;-43
2023/12/14 06:11:06;;;;;;;37.88;31.42;;;;;;;;;;4985254;28;20227;-43
2023/12/14 06:13:32;;;;;;;29.85;24.58;;;;;;;;;;4986959;28;20176;-43
2023/12/14 06:15:58;;;;;;;35.72;29.35;;;;;;;;;;4983716;28;20202;-43
2023/12/14 06:18:24;;;;;;;22.90;21.20;;;;;;;;;;4986427;28;20671;-43
2023/12/14 06:20:50;;;;;;;18.02;16.50;;;;;;;;;;4985441;28;20794;-43
2023/12/14 06:23:16;;;;;;;18.60;17.20;;;;;;;;;;4979328;28;20253;-43
2023/12/14 06:25:41;;;;;;;23.70;21.80;;;;;;;;;;4986608;28;20402;-43
2023/12/14 06:28:07;;;;;;;21.40;19.87;;;;;;;;;;4984014;28;20589;-43
2023/12/14 06:30:34;;;;;;;37.63;33.57;;;;;;;;;;4984542;28;20792;-43
2023/12/14 06:32:59;;;;;;;14.77;13.60;;;;;;;;;;4984207;28;20415;-43
2023/12/14 06:35:25;;;;;;;27.97;25.07;;;;;;;;;;4984420;28;20181;-43
2023/12/14 06:37:51;;;;;;;13.50;12.40;;;;;;;;;;4983684;28;20546;-43
2023/12/14 06:40:19;;;;;;;23.43;21.67;;;;;;;;;;4975608;28;20434;-43
2023/12/14 06:42:45;;;;;;;13.43;12.32;;;;;;;;;;4987621;28;20459;-43
2023/12/14 06:45:11;;;;;;;13.10;12.00;;;;;;;;;;4982094;28;20209;-43
2023/12/14 06:47:37;;;;;;;12.37;11.13;;;;;;;;;;4982572;28;20414;-43
2023/12/14 06:50:03;;;;;;;32.55;29.15;;;;;;;;;;4983116;28;20885;-43
2023/12/14 06:52:29;;;;;;;17.10;15.80;;;;;;;;;;4982937;28;20265;-43
2023/12/14 06:54:55;;;;;;;24.17;20.40;;;;;;;;;;4982745;28;20444;-43
2023/12/14 06:57:21;;;;;;;17.50;16.10;;;;;;;;;;4985872;28;20243;-43
2023/12/14 06:59:47;;;;;;;24.63;22.63;;;;;;;;;;4983323;28;20436;-43
2023/12/14 07:02:13;;;;;;;37.07;30.20;;;;;;;;;;4984689;28;20199;-43
2023/12/14 07:04:39;;;;;;;37.80;32.77;;;;;;;;;;4979959;28;20734;-43
2023/12/14 07:07:04;;;;;;;35.00;30.67;;;;;;;;;;4983294;28;20419;-43
2023/12/14 07:09:30;;;;;;;15.10;13.60;;;;;;;;;;4984949;28;20432;-43
2023/12/14 07:11:56;;;;;;;9.47;8.53;;;;;;;;;;4982514;28;20428;-43
2023/12/14 07:14:23;;;;;;;18.33;11.27;;;;;;;;;;4985027;28;20422;-43
2023/12/14 07:16:49;;;;;;;198.32;53.15;;;;;;;;;;4983778;28;20513;-43
2023/12/14 07:19:15;;;;;;;203.80;54.20;;;;;;;;;;4977784;28;20655;-43
2023/12/14 07:21:41;;;;;;;203.60;53.72;;;;;;;;;;4985604;28;20755;-43
2023/12/14 07:24:07;;;;;;;201.43;51.67;;;;;;;;;;4983196;28;20182;-43
2023/12/14 07:26:33;;;;;;;207.95;55.40;;;;;;;;;;4984194;28;20821;-43
2023/12/14 07:28:59;;;;;;;203.05;53.53;;;;;;;;;;4981852;28;20177;-43
2023/12/14 07:31:25;;;;;;;206.23;53.97;;;;;;;;;;4983608;28;20211;-43
2023/12/14 07:33:51;;;;;;;205.77;54.20;;;;;;;;;;4982804;28;20483;-43
2023/12/14 07:36:17;;;;;;;208.17;54.37;;;;;;;;;;4982059;28;20187;-43
2023/12/14 07:38:42;;;;;;;205.07;53.30;;;;;;;;;;4986076;28;20468;-43
2023/12/14 07:41:08;;;;;;;204.93;53.30;;;;;;;;;;4979824;28;20440;-43
2023/12/14 07:43:34;;;;;;;206.87;54.37;;;;;;;;;;4982034;28;20501;-43
2023/12/14 07:46:00;;;;;;;205.93;54.40;;;;;;;;;;4983013;28;20420;-43
2023/12/14 07:48:28;;;;;;;207.75;55.70;;;;;;;;;;4978236;28;20418;-43
2023/12/14 07:50:54;;;;;;;206.43;54.28;;;;;;;;;;4963659;28;20200;-43
2023/12/14 07:53:20;;;;;;;205.27;54.00;;;;;;;;;;4960368;28;20186;-43
2023/12/14 07:55:46;;;;;;;205.83;53.50;;;;;;;;;;4969238;28;20431;-43
2023/12/14 07:58:13;;;;;;;206.97;55.67;;;;;;;;;;4973708;28;20463;-43
2023/12/14 08:00:39;;;;;;;204.05;53.45;;;;;;;;;;4955910;28;20435;-43
2023/12/14 08:03:05;;;;;;;202.52;52.08;;;;;;;;;;4967463;28;20196;-43
2023/12/14 08:05:31;;;;;;;204.13;52.55;;;;;;;;;;4973129;28;20175;-43
2023/12/14 08:07:57;;;;;;;203.37;52.60;;;;;;;;;;4967620;28;20179;-43
2023/12/14 08:10:23;;;;;;;203.93;53.75;;;;;;;;;;4955316;28;20435;-43
2023/12/14 08:12:51;;;;;;;204.77;54.80;;;;;;;;;;4973651;28;20505;-43
2023/12/14 08:15:17;;;;;;;203.25;53.92;;;;;;;;;;4955952;28;20422;-43
2023/12/14 08:17:43;;;;;;;202.82;53.22;;;;;;;;;;4967106;28;20626;-43
2023/12/14 08:20:12;;;;;;;203.68;53.35;;;;;;;;;;4963536;28;20201;-43
2023/12/14 08:22:43;;;;;;;45.85;23.10;;;;;;;;;;4959504;28;20655;-43
2023/12/14 08:25:10;;;;;;;200.65;52.38;;;;;;;;;;4970715;28;20180;-43
2023/12/14 08:27:36;;;;;;;197.50;52.33;;;;;;;;;;4953914;28;20703;-43
2023/12/14 08:30:01;;;;;;;201.73;53.30;;;;;;;;;;4971275;28;20214;-43
2023/12/14 08:32:27;;;;;;;203.10;53.50;;;;;;;;;;4959014;28;20415;-43
2023/12/14 08:34:53;;;;;;;203.27;53.73;;;;;;;;;;4963466;28;20419;-43
2023/12/14 08:37:19;;;;;;;194.10;51.80;;;;;;;;;;4966964;28;20468;-43
2023/12/14 08:39:45;;;;;;;202.87;54.23;;;;;;;;;;4955030;28;20446;-43
2023/12/14 08:42:12;;;;;;;202.67;53.60;;;;;;;;;;4973106;28;20467;-44
2023/12/14 08:44:41;;;;;;;204.98;53.58;;;;;;;;;;4955381;28;20415;-43
2023/12/14 08:47:08;;;;;;;208.60;57.13;;;;;;;;;;4967210;28;20236;-44
2023/12/14 08:49:35;;;;;;;203.55;53.05;;;;;;;;;;4962420;28;20200;-42
2023/12/14 08:52:01;;;;;;;206.43;54.70;;;;;;;;;;4959466;28;20182;-43
2023/12/14 08:54:28;;;;;;;204.93;54.15;;;;;;;;;;4970572;28;20548;-43
2023/12/14 08:56:53;;;;;;;204.25;54.55;;;;;;;;;;4971237;28;20201;-43
2023/12/14 08:59:20;;;;;;;202.53;52.87;;;;;;;;;;4971995;28;20264;-43
2023/12/14 09:01:46;;;;;;;205.73;53.55;;;;;;;;;;4958865;28;20472;-43
2023/12/14 09:04:12;;;;;;;132.75;37.42;;;;;;;;;;4970289;28;20256;-43
2023/12/14 09:06:42;;;;;;;12.70;11.70;;;;;;;;;;4982860;28;20173;-43
2023/12/14 09:09:08;;;;;;;33.92;32.03;;;;;;;;;;4976963;28;20177;-43
2023/12/14 09:11:36;;;;;;;43.60;39.50;;;;;;;;;;4981442;28;20399;-43
2023/12/14 09:14:03;;;;;;;41.08;36.75;;;;;;;;;;4971443;28;20256;-43
2023/12/14 09:16:29;;;;;;;36.22;30.58;;;;;;;;;;4954916;28;20195;-43
2023/12/14 09:18:54;;;;;;;36.70;30.57;;;;;;;;;;4966049;28;20255;-43
2023/12/14 09:21:20;;;;;;;36.67;32.37;;;;;;;;;;4963193;28;20436;-43
2023/12/14 09:23:46;;;;;;;37.30;32.23;;;;;;;;;;4958420;28;20404;-43
2023/12/14 09:26:12;;;;;;;34.87;29.67;;;;;;;;;;4971169;28;20776;-44
2023/12/14 09:28:38;;;;;;;34.27;29.60;;;;;;;;;;4952805;28;20857;-43
2023/12/14 09:31:04;;;;;;;22.27;20.38;;;;;;;;;;4969604;28;20808;-43
2023/12/14 09:33:30;;;;;;;25.92;23.98;;;;;;;;;;4959767;28;20178;-43
2023/12/14 09:35:56;;;;;;;28.60;26.00;;;;;;;;;;4961760;28;20176;-43
2023/12/14 09:38:22;;;;;;;42.85;38.40;;;;;;;;;;4967335;28;20458;-43
2023/12/14 09:40:48;;;;;;;33.80;30.73;;;;;;;;;;4953656;28;20200;-43
2023/12/14 09:43:14;;;;;;;15.40;14.27;;;;;;;;;;4972869;28;20407;-43
2023/12/14 09:45:44;;;;;;;30.13;27.50;;;;;;;;;;4956145;28;20566;-43
2023/12/14 09:48:11;;;;;;;32.55;29.10;;;;;;;;;;4965544;28;20409;-43
2023/12/14 09:50:40;;;;;;;37.90;34.25;;;;;;;;;;4963290;28;20277;-43
2023/12/14 09:53:07;;;;;;;29.17;26.67;;;;;;;;;;4961507;28;20182;-43
2023/12/14 09:55:33;;;;;;;39.30;35.00;;;;;;;;;;4975347;28;20164;-43
2023/12/14 09:57:59;;;;;;;36.70;32.05;;;;;;;;;;4975673;28;20732;-43
2023/12/14 10:00:38;;;;;;;40.55;36.33;;;;;;;;;;4958584;28;20192;-43
2023/12/14 10:03:25;;;;;;;41.13;35.67;;;;;;;;;;4970595;28;20275;-43
2023/12/14 10:05:52;;;;;;;35.05;31.70;;;;;;;;;;4962062;28;20263;-43
2023/12/14 10:08:18;;;;;;;15.57;14.27;;;;;;;;;;4965326;28;20316;-43
2023/12/14 10:10:44;;;;;;;22.98;21.40;;;;;;;;;;4969942;28;20203;-43
2023/12/14 10:13:11;;;;;;;35.40;32.15;;;;;;;;;;4957556;28;20174;-43
2023/12/14 10:15:41;;;;;;;49.15;38.80;;;;;;;;;;4975633;28;20178;-43
2023/12/14 10:18:07;;;;;;;26.65;24.60;;;;;;;;;;4975454;28;20200;-43
2023/12/14 10:20:33;;;;;;;28.73;26.33;;;;;;;;;;4961600;28;20209;-43
2023/12/14 10:22:59;;;;;;;26.15;24.05;;;;;;;;;;4965324;28;20461;-43
2023/12/14 10:25:25;;;;;;;34.07;29.90;;;;;;;;;;4969777;28;20190;-43
2023/12/14 10:27:54;;;;;;;21.17;19.45;;;;;;;;;;4957369;28;20413;-43
2023/12/14 10:30:20;;;;;;;35.25;30.70;;;;;;;;;;4975013;28;20224;-43
2023/12/14 10:32:50;;;;;;;19.70;17.90;;;;;;;;;;4958098;28;20650;-43
2023/12/14 10:35:16;;;;;;;36.28;31.80;;;;;;;;;;4969544;28;20419;-43
2023/12/14 10:37:42;;;;;;;32.63;29.70;;;;;;;;;;4965254;28;20211;-43
2023/12/14 10:40:12;;;;;;;42.08;37.45;;;;;;;;;;4967036;28;20199;-43
2023/12/14 10:42:39;;;;;;;41.90;36.88;;;;;;;;;;4958093;28;20248;-43
2023/12/14 10:45:06;;;;;;;38.92;34.78;;;;;;;;;;4974739;28;20218;-43
2023/12/14 10:47:33;;;;;;;19.42;17.80;;;;;;;;;;4956382;28;20251;-43
2023/12/14 10:50:01;;;;;;;19.08;17.40;;;;;;;;;;4969075;28;20233;-44
2023/12/14 10:52:27;;;;;;;25.42;23.42;;;;;;;;;;4963772;28;20201;-43
2023/12/14 10:54:57;;;;;;;30.52;27.98;;;;;;;;;;4962000;28;20182;-43
2023/12/14 10:57:23;;;;;;;65.93;39.30;;;;;;;;;;4974206;28;20198;-43
2023/12/14 10:59:58;;;;;;;58.63;38.80;;;;;;;;;;4974471;28;20195;-43
2023/12/14 11:02:25;;;;;;;43.60;32.72;;;;;;;;;;4954097;28;20651;-43
2023/12/14 11:04:56;;;;;;;48.78;31.80;;;;;;;;;;4970711;28;20214;-43
2023/12/14 11:07:45;;;;;;;58.58;32.65;;;;;;;;;;4961662;28;20234;-43
2023/12/14 11:10:11;;;;;;;70.50;40.35;;;;;;;;;;4963636;28;20306;-43
2023/12/14 11:12:37;;;;;;;55.83;32.80;;;;;;;;;;4966713;28;20272;-43
2023/12/14 11:15:05;;;;;;;53.35;33.67;;;;;;;;;;4958483;28;20232;-43
2023/12/14 11:17:34;;;;;;;84.00;42.72;;;;;;;;;;4973940;28;20207;-43
2023/12/14 11:20:20;;;;;;;78.22;42.90;;;;;;;;;;4954420;28;20265;-42
2023/12/14 11:22:46;;;;;;;40.97;29.75;;;;;;;;;;4971975;28;20615;-43
2023/12/14 11:25:13;;;;;;;37.10;34.10;;;;;;;;;;4959652;28;20176;-43
2023/12/14 11:27:43;;;;;;;40.10;36.10;;;;;;;;;;4965384;28;20185;-43
2023/12/14 11:30:11;;;;;;;41.25;37.15;;;;;;;;;;4966596;28;20252;-43
2023/12/14 11:32:37;;;;;;;40.15;36.05;;;;;;;;;;4958245;28;20196;-43
2023/12/14 11:35:03;;;;;;;39.13;35.03;;;;;;;;;;4974170;28;20180;-43
2023/12/14 11:37:29;;;;;;;43.13;39.03;;;;;;;;;;4953687;28;21085;-43
2023/12/14 11:39:55;;;;;;;44.63;38.00;;;;;;;;;;4969085;28;20352;-43
2023/12/14 11:42:21;;;;;;;42.67;34.97;;;;;;;;;;4962975;28;20414;-43
2023/12/14 11:44:47;;;;;;;43.97;37.93;;;;;;;;;;4961469;28;20409;-43
2023/12/14 11:47:13;;;;;;;44.97;38.17;;;;;;;;;;4970805;28;20421;-43
2023/12/14 11:49:39;;;;;;;43.57;34.67;;;;;;;;;;4954293;28;20749;-43
2023/12/14 11:52:05;;;;;;;36.37;29.63;;;;;;;;;;4972872;28;20431;-43
2023/12/14 11:54:31;;;;;;;44.23;37.67;;;;;;;;;;4959237;28;20419;-44
2023/12/14 11:56:57;;;;;;;43.22;38.42;;;;;;;;;;4972169;28;20834;-43
2023/12/14 11:59:23;;;;;;;38.37;33.83;;;;;;;;;;4967035;28;20234;-43
2023/12/14 12:01:56;;;;;;;39.95;35.72;;;;;;;;;;4956720;28;20439;-43
2023/12/14 12:04:23;;;;;;;36.05;30.77;;;;;;;;;;4973761;28;20201;-43
2023/12/14 12:06:49;;;;;;;34.75;30.92;;;;;;;;;;4954700;28;20705;-43
2023/12/14 12:09:32;;;;;;;42.50;38.20;;;;;;;;;;4968550;28;20181;-43
2023/12/14 12:11:58;;;;;;;37.78;32.90;;;;;;;;;;4960578;28;20424;-43
2023/12/14 12:14:24;;;;;;;44.03;39.35;;;;;;;;;;4963163;28;20180;-43
2023/12/14 12:16:52;;;;;;;46.47;41.70;;;;;;;;;;4968278;28;20716;-43
2023/12/14 12:19:18;;;;;;;44.40;39.60;;;;;;;;;;4955123;28;20419;-43
2023/12/14 12:21:44;;;;;;;43.42;39.38;;;;;;;;;;4973390;28;20169;-43
2023/12/14 12:24:10;;;;;;;48.00;43.00;;;;;;;;;;4956575;28;20182;-43
2023/12/14 12:26:36;;;;;;;36.30;30.53;;;;;;;;;;4966821;28;20496;-43
2023/12/14 12:29:05;;;;;;;29.20;25.90;;;;;;;;;;4965827;28;20417;-43
2023/12/14 12:31:32;;;;;;;14.10;12.90;;;;;;;;;;4972394;28;20579;-43
2023/12/14 12:33:57;;;;;;;18.08;16.27;;;;;;;;;;4970539;28;20177;-43
2023/12/14 12:36:23;;;;;;;19.83;18.23;;;;;;;;;;4953209;28;20174;-43
2023/12/14 12:38:51;;;;;;;14.43;13.05;;;;;;;;;;4969394;28;20460;-43
2023/12/14 12:41:17;;;;;;;17.63;16.05;;;;;;;;;;4958194;28;20194;-43
2023/12/14 12:43:43;;;;;;;33.05;27.60;;;;;;;;;;4962764;28;20178;-43
2023/12/14 12:46:09;;;;;;;38.80;32.27;;;;;;;;;;4967803;28;20195;-43
2023/12/14 12:48:36;;;;;;;46.03;39.00;;;;;;;;;;4954337;28;20411;-43
2023/12/14 12:51:02;;;;;;;44.40;39.58;;;;;;;;;;4973035;28;20298;-43
2023/12/14 12:53:28;;;;;;;41.67;37.03;;;;;;;;;;4956282;28;20257;-43
2023/12/14 12:55:54;;;;;;;35.37;31.00;;;;;;;;;;4966181;28;20195;-43
2023/12/14 12:58:20;;;;;;;35.45;30.65;;;;;;;;;;4972130;28;20466;-43
2023/12/14 13:00:46;;;;;;;39.23;33.10;;;;;;;;;;4968155;28;20198;-43
2023/12/14 13:03:12;;;;;;;36.87;32.87;;;;;;;;;;4953959;28;20422;-43
2023/12/14 13:05:38;;;;;;;36.50;31.20;;;;;;;;;;4972944;28;20406;-43
2023/12/14 13:08:05;;;;;;;39.75;32.40;;;;;;;;;;4956722;28;20590;-43
2023/12/14 13:10:31;;;;;;;35.35;29.42;;;;;;;;;;4965353;28;20273;-43
2023/12/14 13:12:57;;;;;;;35.60;30.75;;;;;;;;;;4964588;28;20584;-43
2023/12/14 13:15:25;;;;;;;35.85;30.50;;;;;;;;;;4957623;28;20182;-43
2023/12/14 13:17:51;;;;;;;29.02;23.73;;;;;;;;;;4972227;28;20564;-43
2023/12/14 13:20:18;;;;;;;39.15;32.67;;;;;;;;;;4953225;28;20806;-43
2023/12/14 13:22:44;;;;;;;39.35;34.70;;;;;;;;;;4969385;28;20170;-43
2023/12/14 13:25:10;;;;;;;37.35;31.15;;;;;;;;;;4960634;28;20193;-43
2023/12/14 13:27:36;;;;;;;32.90;28.53;;;;;;;;;;4964536;28;20174;-43
2023/12/14 13:30:02;;;;;;;35.33;29.23;;;;;;;;;;4967044;28;20847;-43
2023/12/14 13:32:28;;;;;;;39.33;31.63;;;;;;;;;;4975669;28;20181;-43
2023/12/14 13:34:54;;;;;;;38.50;31.70;;;;;;;;;;4976502;28;20621;-43
2023/12/14 13:37:20;;;;;;;37.35;30.13;;;;;;;;;;4960412;28;20461;-43
2023/12/14 13:39:47;;;;;;;34.97;29.10;;;;;;;;;;4967968;28;20200;-43
2023/12/14 13:42:15;;;;;;;36.42;29.58;;;;;;;;;;4968628;28;20166;-43
2023/12/14 13:44:41;;;;;;;37.67;29.50;;;;;;;;;;4960578;28;20211;-42
2023/12/14 13:47:07;;;;;;;40.03;31.13;;;;;;;;;;4975654;28;20198;-43
2023/12/14 13:49:34;;;;;;;37.03;29.83;;;;;;;;;;4956563;28;20864;-43
2023/12/14 13:51:59;;;;;;;36.53;31.60;;;;;;;;;;4972024;28;20185;-43
2023/12/14 13:54:25;;;;;;;40.67;33.20;;;;;;;;;;4963728;28;20179;-43
2023/12/14 13:56:53;;;;;;;37.97;31.97;;;;;;;;;;4972753;28;20480;-43
2023/12/14 13:59:19;;;;;;;47.50;41.08;;;;;;;;;;4969813;28;20509;-43
2023/12/14 14:01:45;;;;;;;39.28;33.33;;;;;;;;;;4956389;28;20187;-43
2023/12/14 14:04:11;;;;;;;37.87;31.70;;;;;;;;;;4974648;28;20186;-43
2023/12/14 14:06:37;;;;;;;43.00;33.90;;;;;;;;;;4960338;28;20407;-43
2023/12/14 14:09:04;;;;;;;36.03;32.47;;;;;;;;;;4967035;28;20422;-43
2023/12/14 14:11:30;;;;;;;45.97;37.65;;;;;;;;;;4968337;28;20760;-43